Time;durP1;ratioP1;P1;durP2;ratioP2;P2;SDS_P1;SDS_P2;PMS_P1;PMS_P2;Temp;Humidity;BMP_temperature;BMP_pressure;BME280_temperature;BME280_humidity;BME280_pressure;Samples;Min_cycle;Max_cycle;Signal;HPM_P1;HPM_P2
2021/11/10 00:03:16;;;;;;;47.60;27.30;;;;;;;5.85;68.44;100613.45;212497;1325;139494;-60
2021/11/10 00:08:19;;;;;;;40.10;24.30;;;;;;;5.88;68.80;100605.11;212639;1323;139455;-61
2021/11/10 00:13:22;;;;;;;43.20;24.10;;;;;;;5.95;68.81;100618.95;213438;1322;139370;-59
2021/11/10 00:18:26;;;;;;;48.10;24.10;;;;;;;5.94;68.40;100619.14;213686;1319;139831;-59
2021/11/10 00:23:29;;;;;;;51.60;25.00;;;;;;;5.93;68.47;100622.50;213039;1323;139687;-58
2021/11/10 00:28:32;;;;;;;47.80;26.50;;;;;;;5.89;68.25;100621.14;212385;1329;139369;-59
2021/11/10 00:33:35;;;;;;;48.40;26.30;;;;;;;5.89;68.51;100620.95;212955;1319;139349;-61
2021/11/10 00:38:39;;;;;;;54.70;25.80;;;;;;;5.87;68.78;100633.66;212285;1322;139270;-58
2021/11/10 00:43:43;;;;;;;86.20;24.90;;;;;;;5.85;68.96;100636.00;213065;1319;139520;-56
2021/11/10 00:48:47;;;;;;;42.30;25.60;;;;;;;5.81;68.68;100638.00;212566;1329;139092;-59
2021/11/10 00:53:50;;;;;;;46.00;25.10;;;;;;;5.77;68.86;100635.42;212605;1323;139457;-57
2021/11/10 00:58:54;;;;;;;45.20;24.00;;;;;;;5.77;68.94;100628.39;212801;1326;140070;-59
2021/11/10 01:03:57;;;;;;;45.50;25.60;;;;;;;5.79;69.02;100624.30;213451;1320;140649;-58
2021/11/10 01:09:00;;;;;;;50.70;25.30;;;;;;;5.81;68.94;100615.81;212380;1322;139641;-58
2021/11/10 01:14:03;;;;;;;42.80;24.50;;;;;;;5.77;68.60;100608.84;213206;1322;139578;-59
2021/11/10 01:19:07;;;;;;;51.60;23.90;;;;;;;5.73;68.92;100600.10;213258;1322;139541;-57
2021/11/10 01:24:10;;;;;;;41.20;23.00;;;;;;;5.70;68.80;100589.40;212496;1326;139148;-57
2021/11/10 01:29:15;;;;;;;48.40;23.20;;;;;;;5.69;68.64;100586.42;212976;1320;140623;-58
2021/11/10 01:34:18;;;;;;;55.80;21.80;;;;;;;5.62;68.85;100581.80;212703;1320;140039;-54
2021/11/10 01:39:22;;;;;;;43.30;24.10;;;;;;;5.55;69.11;100580.33;212253;1325;139836;-55
2021/11/10 01:44:29;;;;;;;37.60;23.10;;;;;;;5.56;69.14;100569.73;212796;1325;140132;-54
2021/11/10 01:49:32;;;;;;;40.60;22.90;;;;;;;5.58;68.94;100565.49;212855;1326;139792;-54
2021/11/10 01:54:41;;;;;;;37.90;23.00;;;;;;;5.57;69.01;100568.50;212869;1326;140160;-55
2021/11/10 02:00:00;;;;;;;39.50;22.10;;;;;;;5.56;69.18;100578.02;212739;1319;138921;-61
2021/11/10 02:05:11;;;;;;;42.40;24.30;;;;;;;5.55;69.09;100584.20;212485;1326;139379;-57
2021/11/10 02:10:17;;;;;;;51.50;25.90;;;;;;;5.52;68.87;100578.29;213089;1320;139211;-56
2021/11/10 02:15:22;;;;;;;57.50;25.20;;;;;;;5.44;69.09;100576.46;212395;1328;139437;-56
2021/11/10 02:20:30;;;;;;;57.70;25.00;;;;;;;5.36;69.02;100563.40;213055;1322;138884;-56
2021/11/10 02:25:35;;;;;;;44.30;25.50;;;;;;;5.31;68.92;100559.79;212696;1326;138966;-59
2021/11/10 02:30:38;;;;;;;44.90;25.00;;;;;;;5.31;68.87;100563.83;213241;1325;140222;-59
2021/11/10 02:35:41;;;;;;;45.10;23.60;;;;;;;5.34;69.03;100568.17;212586;1322;139822;-58
2021/11/10 02:40:44;;;;;;;33.80;21.20;;;;;;;5.32;68.53;100562.74;212847;1324;139125;-57
2021/11/10 02:45:48;;;;;;;42.90;21.00;;;;;;;5.27;68.73;100555.80;212789;1322;138799;-55
2021/11/10 02:50:51;;;;;;;38.80;20.00;;;;;;;5.17;68.48;100562.98;212721;1325;139832;-56
2021/11/10 02:55:54;;;;;;;36.00;19.50;;;;;;;5.07;68.52;100561.57;212858;1319;139599;-57
2021/11/10 03:00:58;;;;;;;34.30;18.40;;;;;;;4.95;68.66;100556.28;213281;1320;139091;-55
2021/11/10 03:06:03;;;;;;;31.60;19.10;;;;;;;4.85;68.57;100561.17;213908;1320;139268;-58
2021/11/10 03:11:08;;;;;;;31.30;17.50;;;;;;;4.79;68.55;100560.91;212641;1326;241518;-60
2021/11/10 03:16:11;;;;;;;30.80;17.90;;;;;;;4.78;68.72;100558.63;212849;1319;139319;-59
2021/11/10 03:21:15;;;;;;;34.60;18.90;;;;;;;4.86;69.01;100552.20;213520;1319;139866;-59
2021/11/10 03:26:20;;;;;;;32.50;18.20;;;;;;;4.88;69.11;100545.49;213325;1320;139599;-59
2021/11/10 03:31:23;;;;;;;28.50;17.60;;;;;;;4.92;69.00;100544.73;213904;1321;139501;-57
2021/11/10 03:36:28;;;;;;;30.00;17.90;;;;;;;4.88;68.59;100538.10;212920;1320;138716;-54
2021/11/10 03:41:31;;;;;;;29.00;17.50;;;;;;;4.83;68.90;100540.28;212860;1322;139822;-57
2021/11/10 03:46:37;;;;;;;37.70;17.00;;;;;;;4.77;68.38;100541.06;213511;1319;138724;-58
2021/11/10 03:51:43;;;;;;;27.60;16.50;;;;;;;4.68;68.72;100538.56;212425;1319;139670;-58
2021/11/10 03:56:48;;;;;;;33.50;17.90;;;;;;;4.63;68.67;100529.85;212260;1322;142122;-57
2021/11/10 04:01:52;;;;;;;28.90;17.00;;;;;;;4.60;68.28;100524.08;212842;1322;139368;-58
2021/11/10 04:06:56;;;;;;;29.90;17.70;;;;;;;4.60;68.38;100524.26;212748;1323;139598;-57
2021/11/10 04:12:03;;;;;;;34.40;16.70;;;;;;;4.52;68.19;100519.08;212711;1322;140079;-58
2021/11/10 04:17:09;;;;;;;27.20;16.20;;;;;;;4.48;68.24;100513.34;213040;1322;139313;-56
2021/11/10 04:22:13;;;;;;;28.80;16.00;;;;;;;4.40;68.38;100511.53;213062;1319;138869;-57
2021/11/10 04:27:19;;;;;;;27.70;16.20;;;;;;;4.34;68.42;100507.04;213524;1320;140014;-58
2021/11/10 04:32:22;;;;;;;33.70;17.20;;;;;;;4.28;68.35;100494.10;213179;1322;138779;-58
2021/11/10 04:37:26;;;;;;;30.40;16.10;;;;;;;4.19;68.09;100492.64;212219;1326;139465;-58
2021/11/10 04:42:30;;;;;;;25.70;14.80;;;;;;;4.11;68.35;100487.48;213427;1319;139799;-57
2021/11/10 04:47:35;;;;;;;29.70;16.30;;;;;;;4.05;68.40;100485.98;212763;1322;139160;-57
2021/11/10 04:52:39;;;;;;;25.40;16.40;;;;;;;4.00;68.26;100484.96;212537;1326;140717;-58
2021/11/10 04:57:43;;;;;;;26.80;16.30;;;;;;;3.99;68.19;100483.93;212591;1323;138950;-56
2021/11/10 05:02:47;;;;;;;27.20;16.80;;;;;;;3.98;68.11;100489.02;212481;1322;140331;-57
2021/11/10 05:07:53;;;;;;;30.70;17.10;;;;;;;3.91;68.20;100495.26;212992;1319;138689;-59
2021/11/10 05:12:57;;;;;;;28.50;17.00;;;;;;;3.88;68.34;100491.61;212308;1328;139551;-58
2021/11/10 05:18:01;;;;;;;34.40;16.20;;;;;;;3.85;68.35;100490.08;212873;1322;138992;-60
2021/11/10 05:23:04;;;;;;;22.40;14.80;;;;;;;3.81;68.22;100494.85;212939;1323;139423;-58
2021/11/10 05:28:08;;;;;;;24.20;15.80;;;;;;;3.75;68.27;100493.67;213098;1320;138365;-59
2021/11/10 05:33:11;;;;;;;22.20;15.60;;;;;;;3.70;68.33;100487.42;212996;1325;139476;-56
2021/11/10 05:38:14;;;;;;;26.80;16.00;;;;;;;3.66;68.44;100489.90;213329;1319;138965;-56
2021/11/10 05:43:17;;;;;;;27.60;17.80;;;;;;;3.68;68.32;100486.73;212859;1326;141205;-56
2021/11/10 05:48:20;;;;;;;148.40;95.60;;;;;;;3.70;68.49;100480.74;213311;1320;139747;-58
2021/11/10 05:53:23;;;;;;;32.30;19.40;;;;;;;3.84;68.81;100480.41;212551;1323;138952;-56
2021/11/10 05:58:29;;;;;;;27.90;17.20;;;;;;;3.94;68.51;100483.63;212340;1320;139390;-56
2021/11/10 06:03:32;;;;;;;27.40;16.10;;;;;;;3.94;68.51;100485.39;212920;1322;138690;-56
2021/11/10 06:08:37;;;;;;;31.30;16.90;;;;;;;3.92;68.12;100486.45;212559;1319;138672;-57
2021/11/10 06:13:41;;;;;;;27.10;17.00;;;;;;;3.83;68.05;100491.30;212789;1326;139229;-57
2021/11/10 06:18:45;;;;;;;91.00;57.10;;;;;;;3.76;68.42;100490.34;212812;1327;139436;-55
2021/11/10 06:23:50;;;;;;;30.60;18.00;;;;;;;3.83;68.39;100497.10;212927;1323;139326;-60
2021/11/10 06:28:53;;;;;;;35.20;17.90;;;;;;;3.82;68.05;100498.35;212452;1321;139340;-55
2021/11/10 06:33:56;;;;;;;29.90;17.50;;;;;;;3.84;68.39;100488.48;211974;1328;140004;-57
2021/11/10 06:38:59;;;;;;;28.80;17.30;;;;;;;3.86;68.24;100488.64;212138;1322;139155;-57
2021/11/10 06:44:03;;;;;;;30.40;18.10;;;;;;;3.79;67.91;100502.94;212971;1322;151173;-56
2021/11/10 06:49:06;;;;;;;49.50;30.40;;;;;;;3.75;68.15;100502.98;212546;1326;140977;-58
2021/11/10 06:54:10;;;;;;;26.90;17.40;;;;;;;3.84;68.57;100516.57;212763;1325;138548;-58
2021/11/10 06:59:13;;;;;;;42.10;23.30;;;;;;;3.80;68.27;100518.20;212488;1324;138598;-58
2021/11/10 07:04:16;;;;;;;50.40;25.90;;;;;;;3.75;68.48;100511.76;212734;1322;138894;-59
2021/11/10 07:09:19;;;;;;;38.30;22.60;;;;;;;3.81;68.51;100511.52;212592;1320;139277;-58
2021/11/10 07:14:23;;;;;;;38.50;21.70;;;;;;;3.83;68.73;100504.65;212381;1321;140223;-57
2021/11/10 07:19:26;;;;;;;35.00;19.70;;;;;;;3.87;68.62;100500.21;212168;1324;140073;-58
2021/11/10 07:24:30;;;;;;;33.10;20.30;;;;;;;3.99;68.90;100492.88;212622;1323;139164;-61
2021/11/10 07:29:33;;;;;;;35.00;19.10;;;;;;;4.12;69.01;100490.62;212619;1327;139686;-61
2021/11/10 07:34:37;;;;;;;32.70;19.40;;;;;;;4.28;69.34;100480.75;212270;1327;139169;-60
2021/11/10 07:39:42;;;;;;;36.50;19.00;;;;;;;4.40;69.22;100470.22;212844;1326;139124;-59
2021/11/10 07:44:45;;;;;;;30.80;18.20;;;;;;;4.51;68.90;100475.33;212622;1324;138936;-60
2021/11/10 07:49:48;;;;;;;30.00;17.60;;;;;;;4.59;68.97;100469.98;212634;1326;138902;-59
2021/11/10 07:54:51;;;;;;;28.30;17.30;;;;;;;4.65;69.24;100475.33;212000;1331;139005;-59
2021/11/10 07:59:54;;;;;;;29.60;18.70;;;;;;;4.74;69.22;100475.54;212862;1325;143153;-59
2021/11/10 08:04:57;;;;;;;36.40;19.50;;;;;;;4.83;69.48;100466.61;212544;1324;139645;-59
2021/11/10 08:10:04;;;;;;;42.50;23.20;;;;;;;5.04;69.57;100467.85;212578;1324;140059;-59
2021/11/10 08:15:10;;;;;;;35.40;19.80;;;;;;;5.34;69.60;100465.77;213049;1320;139777;-58
2021/11/10 08:20:15;;;;;;;;;;;;;;;5.52;69.50;100462.27;213124;1326;139300;-63
2021/11/10 08:25:18;;;;;;;33.20;20.00;;;;;;;5.68;69.39;100456.34;212520;1326;125299;-60
2021/11/10 08:30:22;;;;;;;35.00;19.50;;;;;;;5.82;69.20;100453.25;212225;1330;142529;-62
2021/11/10 08:35:28;;;;;;;28.50;19.80;;;;;;;5.90;69.20;100452.91;212666;1323;139032;-58
2021/11/10 08:40:33;;;;;;;37.90;21.00;;;;;;;5.99;69.09;100445.00;212383;1326;138889;-58
2021/11/10 08:45:38;;;;;;;35.60;20.50;;;;;;;6.08;69.11;100444.64;212543;1325;140026;-56
2021/11/10 08:50:43;;;;;;;154.60;87.20;;;;;;;6.19;69.44;100435.61;212686;1325;139593;-57
2021/11/10 08:55:53;;;;;;;285.80;174.60;;;;;;;6.45;69.85;100426.04;212204;1329;138709;-57
2021/11/10 09:00:57;;;;;;;49.60;27.00;;;;;;;6.65;69.26;100413.41;212827;1326;140484;-56
2021/11/10 09:06:01;;;;;;;53.50;30.60;;;;;;;6.84;69.25;100406.77;212705;1326;140067;-60
2021/11/10 09:11:04;;;;;;;51.50;30.60;;;;;;;6.98;69.30;100406.42;212790;1326;139045;-57
2021/11/10 09:16:08;;;;;;;45.60;28.00;;;;;;;7.12;69.29;100404.64;213087;1322;139052;-57
2021/11/10 09:21:11;;;;;;;37.20;23.00;;;;;;;7.24;69.06;100412.98;213628;1323;139799;-60
2021/11/10 09:26:14;;;;;;;118.20;72.90;;;;;;;7.38;68.94;100413.67;213146;1322;139030;-58
2021/11/10 09:31:17;;;;;;;196.10;114.50;;;;;;;7.53;69.22;100408.84;212384;1323;139719;-55
2021/11/10 09:36:20;;;;;;;39.40;23.90;;;;;;;7.74;69.15;100404.02;212430;1325;139350;-56
2021/11/10 09:41:24;;;;;;;42.40;24.50;;;;;;;7.81;68.34;100394.80;213415;1323;139531;-59
2021/11/10 09:46:28;;;;;;;46.00;23.80;;;;;;;7.91;68.37;100388.70;212906;1323;138985;-57
2021/11/10 09:51:33;;;;;;;43.40;23.00;;;;;;;8.04;68.28;100386.73;212331;1327;139187;-59
2021/11/10 09:56:36;;;;;;;45.00;25.10;;;;;;;8.13;67.97;100389.27;212289;1323;141305;-58
2021/11/10 10:01:41;;;;;;;76.70;44.20;;;;;;;8.29;68.09;100382.57;212516;1326;140632;-58
2021/11/10 10:06:45;;;;;;;56.70;29.20;;;;;;;8.59;68.28;100381.66;213068;1325;140890;-58
2021/11/10 10:11:48;;;;;;;54.30;30.50;;;;;;;8.75;67.69;100373.02;212038;1329;139333;-58
2021/11/10 10:16:51;;;;;;;65.60;35.80;;;;;;;8.85;67.33;100361.19;212424;1322;139218;-57
2021/11/10 10:22:02;;;;;;;66.90;35.20;;;;;;;8.93;67.11;100358.07;212432;1327;138497;-57
2021/11/10 10:27:21;;;;;;;167.70;106.30;;;;;;;9.03;66.86;100351.00;212792;1321;139660;-54
2021/11/10 10:32:38;;;;;;;61.40;36.90;;;;;;;9.27;67.40;100340.41;212702;1323;139799;-57
2021/11/10 10:37:52;;;;;;;65.00;33.40;;;;;;;9.51;66.84;100332.47;212603;1326;139825;-57
2021/11/10 10:42:56;;;;;;;60.40;35.30;;;;;;;9.60;66.46;100321.11;212713;1323;139760;-59
2021/11/10 10:48:05;;;;;;;56.60;33.00;;;;;;;9.68;66.21;100312.34;212705;1326;139173;-56
2021/11/10 10:53:12;;;;;;;53.10;31.00;;;;;;;9.78;66.03;100304.54;212718;1323;139087;-56
2021/11/10 10:58:32;;;;;;;53.30;29.30;;;;;;;9.85;65.98;100289.88;212259;1327;139598;-59
2021/11/10 11:03:35;;;;;;;52.30;30.00;;;;;;;9.94;65.84;100284.05;212277;1328;138714;-57
2021/11/10 11:08:39;;;;;;;50.30;30.50;;;;;;;10.00;65.30;100278.13;212638;1325;140236;-56
2021/11/10 11:13:56;;;;;;;49.20;29.80;;;;;;;10.07;65.56;100266.31;212932;1323;214471;-58
2021/11/10 11:19:28;;;;;;;50.40;28.40;;;;;;;10.18;65.60;100256.82;211962;1331;139294;-58
2021/11/10 11:24:39;;;;;;;46.30;26.70;;;;;;;10.33;65.84;100258.23;212050;1334;139267;-56
2021/11/10 11:29:52;;;;;;;42.50;24.80;;;;;;;10.53;65.56;100250.09;212156;1326;139871;-58
2021/11/10 11:35:27;;;;;;;37.50;25.10;;;;;;;10.84;65.75;100238.13;212221;1329;140172;-58
2021/11/10 11:40:33;;;;;;;41.80;24.00;;;;;;;11.20;65.75;100230.80;212552;1321;139691;-58
2021/11/10 11:45:39;;;;;;;38.90;24.90;;;;;;;11.53;65.42;100222.89;212390;1328;139202;-58
2021/11/10 11:50:42;;;;;;;;;;;;;;;11.81;65.02;100215.38;212189;1325;139372;-59
2021/11/10 11:55:55;;;;;;;32.20;20.00;;;;;;;12.00;64.79;100209.48;212834;1324;127581;-59
2021/11/10 12:01:11;;;;;;;30.20;19.60;;;;;;;12.17;64.28;100199.55;212324;1330;140890;-57
2021/11/10 12:06:19;;;;;;;28.60;17.50;;;;;;;12.30;63.79;100186.25;212638;1327;142723;-58
2021/11/10 12:11:22;;;;;;;24.60;16.00;;;;;;;12.40;63.58;100181.47;212321;1321;139476;-57
2021/11/10 12:16:26;;;;;;;25.40;15.10;;;;;;;12.48;63.67;100168.98;212644;1323;139093;-56
2021/11/10 12:21:35;;;;;;;23.20;15.10;;;;;;;12.55;63.18;100165.07;212880;1322;139654;-58
2021/11/10 12:27:17;;;;;;;21.90;12.90;;;;;;;12.58;62.90;100154.91;212505;1326;139519;-58
2021/11/10 12:32:22;;;;;;;17.20;12.60;;;;;;;12.65;62.78;100148.31;213178;1320;140106;-57
2021/11/10 12:37:33;;;;;;;20.80;12.40;;;;;;;12.73;62.93;100141.34;212709;1319;141153;-57
2021/11/10 12:42:55;;;;;;;18.00;11.20;;;;;;;12.78;62.61;100139.44;212006;1326;140673;-58
2021/11/10 12:48:04;;;;;;;20.00;10.30;;;;;;;12.81;62.51;100129.84;213948;1325;138999;-57
2021/11/10 12:53:13;;;;;;;17.10;10.10;;;;;;;12.81;62.03;100127.16;212660;1322;139944;-58
2021/11/10 12:58:20;;;;;;;13.00;8.80;;;;;;;12.79;62.17;100120.50;214703;1321;139154;-57
2021/11/10 13:03:28;;;;;;;14.80;9.10;;;;;;;12.78;61.66;100116.45;213889;1321;139785;-56
2021/11/10 13:09:23;;;;;;;14.90;9.90;;;;;;;12.77;61.80;100110.80;214008;1319;140071;-58
2021/11/10 13:14:24;;;;;;;14.00;9.30;;;;;;;12.77;61.55;100105.11;214032;1320;139354;-57
2021/11/10 13:19:48;;;;;;;16.50;8.90;;;;;;;12.83;61.70;100098.75;213023;1323;139344;-56
2021/11/10 13:25:16;;;;;;;15.40;9.80;;;;;;;12.87;61.34;100100.15;213830;1320;138963;-56
2021/11/10 13:30:30;;;;;;;14.20;9.10;;;;;;;12.90;61.38;100092.64;214278;1319;138650;-57
2021/11/10 13:35:34;;;;;;;15.10;8.60;;;;;;;12.90;61.37;100089.26;214310;1319;139715;-57
2021/11/10 13:40:37;;;;;;;16.40;8.90;;;;;;;12.88;61.39;100080.83;212780;1325;139084;-58
2021/11/10 13:45:43;;;;;;;16.30;8.20;;;;;;;12.81;61.22;100079.81;215080;1319;138728;-57
2021/11/10 13:50:47;;;;;;;11.30;7.90;;;;;;;12.73;60.93;100074.91;213381;1318;138842;-57
2021/11/10 13:55:58;;;;;;;15.60;7.40;;;;;;;12.64;60.89;100071.27;214932;1321;138957;-57
2021/11/10 14:01:02;;;;;;;60.60;40.10;;;;;;;12.58;60.96;100069.48;214768;1320;138973;-59
2021/11/10 14:06:10;;;;;;;22.00;13.00;;;;;;;12.56;60.85;100066.56;214521;1319;138837;-57
2021/11/10 14:11:13;;;;;;;13.80;7.60;;;;;;;12.49;60.90;100063.02;213996;1319;139550;-58
2021/11/10 14:16:18;;;;;;;16.70;6.40;;;;;;;12.43;60.46;100056.75;213733;1322;139174;-64
2021/11/10 14:21:26;;;;;;;9.40;5.40;;;;;;;12.35;60.32;100050.05;215464;1320;139676;-58
2021/11/10 14:26:29;;;;;;;8.40;5.30;;;;;;;12.28;59.97;100050.07;213734;1319;139903;-58
2021/11/10 14:31:32;;;;;;;9.50;6.00;;;;;;;12.18;60.25;100047.20;213681;1322;138732;-58
2021/11/10 14:36:38;;;;;;;12.80;7.40;;;;;;;12.07;60.06;100046.89;213969;1322;139172;-57
2021/11/10 14:41:54;;;;;;;18.30;9.40;;;;;;;11.95;60.13;100035.09;213951;1319;139030;-58
2021/11/10 14:46:59;;;;;;;14.10;8.80;;;;;;;11.82;59.93;100032.52;214162;1319;140377;-57
2021/11/10 14:52:11;;;;;;;20.50;11.90;;;;;;;11.68;59.96;100027.90;212954;1322;140234;-56
2021/11/10 14:57:22;;;;;;;17.00;9.80;;;;;;;11.53;60.12;100033.77;213503;1319;139729;-57
2021/11/10 15:02:30;;;;;;;18.20;8.20;;;;;;;11.41;59.69;100034.04;214879;1321;139947;-58
2021/11/10 15:07:34;;;;;;;16.90;9.10;;;;;;;11.29;60.28;100027.15;214377;1319;139432;-57
2021/11/10 15:12:37;;;;;;;14.50;8.20;;;;;;;11.18;59.93;100019.02;212404;1325;139880;-56
2021/11/10 15:17:40;;;;;;;40.70;21.70;;;;;;;11.06;60.23;100019.23;213633;1321;140220;-58
2021/11/10 15:22:58;;;;;;;25.80;11.50;;;;;;;11.01;60.32;100009.17;214121;1322;139659;-57
2021/11/10 15:28:05;;;;;;;19.50;8.60;;;;;;;10.91;60.28;100018.01;214383;1319;139262;-59
2021/11/10 15:33:11;;;;;;;19.40;8.50;;;;;;;10.79;60.56;100010.03;214185;1320;139489;-58
2021/11/10 15:38:23;;;;;;;15.50;8.70;;;;;;;10.69;60.23;100006.95;213379;1322;139311;-57
2021/11/10 15:43:27;;;;;;;18.10;8.90;;;;;;;10.59;60.38;100007.27;214143;1321;139090;-55
2021/11/10 15:48:31;;;;;;;17.80;9.30;;;;;;;10.48;60.55;100002.10;214152;1320;139070;-56
2021/11/10 15:53:34;;;;;;;19.70;9.00;;;;;;;10.41;60.99;100002.24;213456;1322;139523;-56
2021/11/10 15:58:37;;;;;;;18.00;10.10;;;;;;;10.37;60.92;100002.77;214429;1320;139800;-59
2021/11/10 16:03:44;;;;;;;18.80;10.10;;;;;;;10.22;61.01;100001.46;215023;1319;138933;-56
2021/11/10 16:08:47;;;;;;;19.20;9.80;;;;;;;10.10;60.98;100002.55;213948;1318;139723;-57
2021/11/10 16:13:50;;;;;;;37.20;11.10;;;;;;;9.99;60.97;100005.14;213491;1322;139608;-57
2021/11/10 16:18:53;;;;;;;25.70;11.70;;;;;;;9.92;61.26;100007.60;213785;1322;141450;-56
2021/11/10 16:23:59;;;;;;;33.80;12.10;;;;;;;9.85;61.12;100010.55;213184;1321;140145;-56
2021/11/10 16:29:04;;;;;;;42.90;12.80;;;;;;;9.76;61.23;100010.06;214742;1319;138941;-57
2021/11/10 16:34:08;;;;;;;39.10;13.30;;;;;;;9.69;61.29;100011.77;214394;1320;139226;-56
2021/11/10 16:39:11;;;;;;;46.90;15.40;;;;;;;9.66;61.50;100020.55;214940;1319;139213;-58
2021/11/10 16:44:14;;;;;;;37.80;13.10;;;;;;;9.61;61.56;100018.69;214549;1319;139783;-57
2021/11/10 16:49:17;;;;;;;36.30;13.20;;;;;;;9.51;61.55;100024.05;214189;1319;139062;-56
2021/11/10 16:54:20;;;;;;;28.20;13.40;;;;;;;9.44;61.53;100029.83;214764;1322;140145;-56
2021/11/10 16:59:23;;;;;;;31.00;15.20;;;;;;;9.42;61.75;100027.97;214859;1319;140694;-56
2021/11/10 17:04:27;;;;;;;27.90;15.20;;;;;;;9.39;61.56;100026.65;215069;1319;139323;-56
2021/11/10 17:09:30;;;;;;;30.70;16.70;;;;;;;9.36;61.57;100021.67;214185;1319;139868;-57
2021/11/10 17:14:33;;;;;;;36.70;16.70;;;;;;;9.31;61.58;100018.70;215093;1319;141727;-56
2021/11/10 17:19:36;;;;;;;33.20;18.70;;;;;;;9.24;61.80;100016.31;214986;1319;139112;-57
2021/11/10 17:24:40;;;;;;;36.40;20.10;;;;;;;9.20;62.15;100014.88;214497;1319;139416;-58
2021/11/10 17:29:43;;;;;;;175.30;97.40;;;;;;;9.21;62.42;100018.89;214536;1319;140923;-58
2021/11/10 17:34:46;;;;;;;38.20;21.60;;;;;;;9.20;62.24;100016.29;214617;1319;140000;-58
2021/11/10 17:39:50;;;;;;;36.00;19.60;;;;;;;9.06;61.98;100008.20;213546;1319;141209;-58
2021/11/10 17:44:53;;;;;;;36.20;20.10;;;;;;;8.93;62.02;100010.84;212830;1318;139260;-60
2021/11/10 17:49:56;;;;;;;36.20;20.40;;;;;;;8.81;62.11;100013.58;214477;1319;139038;-59
2021/11/10 17:55:00;;;;;;;144.50;84.90;;;;;;;8.70;62.38;100012.45;214166;1322;138869;-57
2021/11/10 18:00:07;;;;;;;41.80;23.10;;;;;;;8.66;62.65;100009.25;212396;1325;140221;-59
2021/11/10 18:05:17;;;;;;;41.50;20.60;;;;;;;8.53;62.33;100010.08;212640;1322;139132;-56
2021/11/10 18:10:21;;;;;;;36.50;19.70;;;;;;;8.42;62.41;100011.20;212572;1325;139896;-59
2021/11/10 18:15:24;;;;;;;47.30;21.70;;;;;;;8.41;62.83;100017.42;212720;1327;141008;-58
2021/11/10 18:20:28;;;;;;;40.80;20.80;;;;;;;8.42;62.79;100014.56;212470;1323;139159;-60
2021/11/10 18:25:31;;;;;;;100.50;62.60;;;;;;;8.43;63.39;100013.98;212454;1322;141334;-56
2021/11/10 18:30:34;;;;;;;54.60;25.50;;;;;;;8.64;63.63;100010.55;212496;1320;139872;-58
2021/11/10 18:35:38;;;;;;;47.60;23.80;;;;;;;8.56;63.03;100007.33;212880;1322;139389;-59
2021/11/10 18:40:42;;;;;;;47.50;23.00;;;;;;;8.42;62.87;100005.89;212710;1326;139670;-58
2021/11/10 18:45:45;;;;;;;46.90;22.80;;;;;;;8.31;63.02;100009.27;212729;1323;139746;-58
2021/11/10 18:50:51;;;;;;;39.70;21.20;;;;;;;8.22;63.07;100010.65;212430;1325;141167;-61
2021/11/10 18:55:59;;;;;;;48.00;23.30;;;;;;;8.09;63.02;100018.77;211993;1325;139207;-61
2021/11/10 19:01:06;;;;;;;46.60;24.20;;;;;;;7.94;62.91;100017.36;212530;1322;139625;-60
2021/11/10 19:21:57;;;;;;;47.30;23.20;;;;;;;7.89;63.57;100038.19;212260;1332;140865;-60
2021/11/10 19:27:02;;;;;;;41.90;22.00;;;;;;;7.83;63.64;100043.19;213361;1322;139327;-61
2021/11/10 19:32:06;;;;;;;56.50;25.60;;;;;;;7.72;63.66;100042.52;212326;1322;139258;-57
2021/11/10 19:37:09;;;;;;;58.70;27.60;;;;;;;7.62;63.78;100048.13;212499;1322;139396;-58
2021/11/10 19:42:12;;;;;;;54.80;29.30;;;;;;;7.51;63.58;100043.57;212451;1328;139482;-59
2021/11/10 19:47:15;;;;;;;104.60;57.30;;;;;;;7.43;64.02;100045.94;212043;1326;139831;-56
2021/11/10 19:52:18;;;;;;;68.90;36.00;;;;;;;7.48;63.95;100036.58;213258;1325;139350;-59
2021/11/10 19:57:22;;;;;;;73.30;36.90;;;;;;;7.34;63.62;100035.28;213063;1319;140492;-58
2021/11/10 20:02:26;;;;;;;70.00;37.50;;;;;;;7.15;63.39;100036.06;213365;1320;139238;-60
2021/11/10 20:07:30;;;;;;;68.40;38.10;;;;;;;7.00;63.41;100039.39;213360;1322;139519;-57
2021/11/10 20:12:33;;;;;;;119.80;69.70;;;;;;;6.97;64.30;100041.95;212853;1321;139423;-56
2021/11/10 20:17:38;;;;;;;84.30;39.00;;;;;;;7.04;64.14;100041.90;212933;1319;139966;-57
2021/11/10 20:22:42;;;;;;;76.10;38.30;;;;;;;6.93;63.59;100042.76;212572;1322;140030;-57
2021/11/10 20:27:47;;;;;;;76.10;39.30;;;;;;;6.83;63.79;100036.37;213107;1320;139531;-59
2021/11/10 20:32:53;;;;;;;67.90;38.80;;;;;;;6.74;63.51;100038.25;213042;1324;139805;-58
2021/11/10 20:37:57;;;;;;;70.00;40.60;;;;;;;6.59;63.47;100042.04;213322;1319;138802;-59
2021/11/10 20:43:03;;;;;;;72.30;39.40;;;;;;;6.51;63.84;100039.80;212692;1328;139465;-60
2021/11/10 20:48:07;;;;;;;73.10;40.10;;;;;;;6.44;64.00;100037.70;212764;1322;140350;-58
2021/11/10 20:53:10;;;;;;;71.60;39.50;;;;;;;6.33;64.10;100031.16;212350;1322;140666;-60
2021/11/10 20:58:13;;;;;;;74.50;40.10;;;;;;;6.26;64.06;100028.90;213180;1321;140432;-60
2021/11/10 21:03:19;;;;;;;79.30;41.10;;;;;;;6.19;64.38;100020.13;213132;1320;139229;-59
2021/11/10 21:08:23;;;;;;;76.00;39.50;;;;;;;6.13;64.52;100026.26;212698;1325;139781;-57
2021/11/10 21:13:27;;;;;;;77.90;36.40;;;;;;;6.08;64.69;100013.72;213376;1322;139515;-58
2021/11/10 21:18:30;;;;;;;67.40;36.40;;;;;;;6.10;64.75;100016.83;212740;1325;139249;-58
2021/11/10 21:23:33;;;;;;;71.80;37.50;;;;;;;6.12;64.69;100010.96;213027;1322;140768;-59
2021/11/10 21:28:37;;;;;;;81.50;39.90;;;;;;;6.18;64.77;100003.40;212973;1322;140110;-59
2021/11/10 21:33:40;;;;;;;75.20;39.10;;;;;;;6.20;64.96;100001.93;212621;1328;234447;-57
2021/11/10 21:38:43;;;;;;;71.30;40.20;;;;;;;6.16;64.64;100001.70;213027;1322;139576;-57
2021/11/10 21:43:46;;;;;;;82.20;40.40;;;;;;;6.05;64.31;100008.35;213393;1320;138886;-60
2021/11/10 21:48:49;;;;;;;72.00;39.20;;;;;;;5.93;64.53;100007.80;213713;1320;139167;-60
2021/11/10 21:53:53;;;;;;;73.00;41.70;;;;;;;5.84;64.68;100002.20;212442;1323;139325;-61
2021/11/10 21:58:57;;;;;;;90.60;46.00;;;;;;;5.78;64.62;99997.77;212743;1326;139516;-59
2021/11/10 22:04:00;;;;;;;90.50;50.80;;;;;;;5.69;64.70;99993.63;212925;1319;138994;-59
2021/11/10 22:09:05;;;;;;;90.50;49.40;;;;;;;5.58;64.84;99990.05;213402;1320;139519;-58
2021/11/10 22:14:08;;;;;;;93.00;50.30;;;;;;;5.51;64.50;99991.45;214119;1323;138822;-60
2021/11/10 22:19:11;;;;;;;92.80;50.00;;;;;;;5.41;64.58;99993.81;212494;1329;138807;-57
2021/11/10 22:24:15;;;;;;;90.30;48.80;;;;;;;5.35;64.68;99998.73;213159;1322;140151;-59
2021/11/10 22:29:18;;;;;;;89.50;50.50;;;;;;;5.32;64.65;100000.02;213723;1323;139209;-58
2021/11/10 22:34:21;;;;;;;94.80;51.40;;;;;;;5.29;64.51;100005.58;212793;1323;139260;-58
2021/11/10 22:39:24;;;;;;;101.40;52.60;;;;;;;5.21;64.62;100006.63;212969;1319;139341;-59
2021/11/10 22:44:27;;;;;;;96.90;51.80;;;;;;;5.15;64.63;100002.92;213179;1325;139030;-59
2021/11/10 22:49:30;;;;;;;92.90;50.80;;;;;;;5.08;64.81;100005.20;213146;1320;139934;-59
2021/11/10 22:54:34;;;;;;;87.50;49.70;;;;;;;5.00;64.79;100005.73;212735;1325;138961;-58
2021/11/10 22:59:37;;;;;;;93.00;51.10;;;;;;;4.93;64.68;100009.41;213165;1320;138934;-58
2021/11/10 23:04:41;;;;;;;91.40;52.00;;;;;;;4.88;64.91;100006.55;213963;1320;139514;-57
2021/11/10 23:09:44;;;;;;;94.00;52.00;;;;;;;4.85;64.89;100014.17;213048;1324;139682;-57